createdAt,value
2022-12-29T00:00:02.546Z,100058.69
2022-12-29T00:02:29.274Z,100054.38
2022-12-29T00:04:55.905Z,100055.03
2022-12-29T00:07:22.494Z,100036.47
2022-12-29T00:09:49.094Z,100044.28
2022-12-29T00:12:15.799Z,100032.84
2022-12-29T00:15:00.977Z,100019.44
2022-12-29T00:17:28.038Z,100016.78
2022-12-29T00:20:13.246Z,100009.00
2022-12-29T00:22:59.060Z,100006.34
2022-12-29T00:25:44.515Z,100007.03
2022-12-29T00:28:29.690Z,100003.53
2022-12-29T00:31:19.032Z,99994.91
2022-12-29T00:34:04.100Z,99995.59
2022-12-29T00:36:42.540Z,99992.09
2022-12-29T00:39:45.779Z,99985.81
2022-12-29T00:42:30.788Z,99983.16
2022-12-29T00:44:57.779Z,99980.50
2022-12-29T00:47:24.320Z,99972.56
2022-12-29T00:49:51.324Z,99976.88
2022-12-29T00:52:18.345Z,99960.97
2022-12-29T00:54:46.007Z,99953.03
2022-12-29T00:57:13.539Z,99948.56
2022-12-29T00:59:42.606Z,99943.25
2022-12-29T01:02:11.044Z,99948.41
2022-12-29T01:04:38.550Z,99944.91
2022-12-29T01:07:06.007Z,99943.09
2022-12-29T01:09:52.028Z,99936.81
2022-12-29T01:12:38.791Z,99945.75
2022-12-29T01:15:06.650Z,99938.63
2022-12-29T01:17:34.371Z,99923.56
2022-12-29T01:20:01.785Z,99922.72
2022-12-29T01:22:28.727Z,99921.06
2022-12-29T01:24:55.254Z,99924.69
2022-12-29T01:27:21.848Z,99912.94
2022-12-29T01:29:48.840Z,99914.63
2022-12-29T01:32:15.451Z,99919.91
2022-12-29T01:34:41.982Z,99922.44
2022-12-29T01:37:08.616Z,99926.03
2022-12-29T01:39:35.146Z,99925.09
2022-12-29T01:42:01.707Z,99922.44
2022-12-29T01:45:01.081Z,99918.09
2022-12-29T01:47:33.888Z,99921.56
2022-12-29T01:50:07.368Z,99926.03
2022-12-29T01:52:36.649Z,99932.19
2022-12-29T01:55:05.379Z,99929.53
2022-12-29T01:57:37.882Z,99937.47
2022-12-29T02:00:11.100Z,99934.81
2022-12-29T02:02:38.868Z,99943.63
2022-12-29T02:05:25.083Z,99943.63
2022-12-29T02:07:53.228Z,99932.19
2022-12-29T02:10:26.004Z,99914.63
2022-12-29T02:12:53.779Z,99930.38
2022-12-29T02:15:28.771Z,99920.63
2022-12-29T02:18:32.479Z,99937.34
2022-12-29T02:21:40.914Z,99938.34
2022-12-29T02:24:13.799Z,99933.88
2022-12-29T02:26:54.671Z,99941.81
2022-12-29T02:29:30.789Z,99931.22
2022-12-29T02:32:02.687Z,99924.09
2022-12-29T02:35:15.882Z,99931.06
2022-12-29T02:38:01.279Z,99924.94
2022-12-29T02:40:47.288Z,99908.09
2022-12-29T02:43:57.355Z,99903.94
2022-12-29T02:46:39.064Z,99935.53
2022-12-29T02:49:19.909Z,99931.22
2022-12-29T02:52:05.231Z,99903.97
2022-12-29T02:54:54.980Z,99927.03
2022-12-29T02:57:41.495Z,99929.25
2022-12-29T03:00:14.559Z,99919.03
2022-12-29T03:03:20.871Z,99952.28
2022-12-29T03:06:12.006Z,99932.72
2022-12-29T03:09:19.112Z,99935.53
2022-12-29T03:12:18.719Z,99896.00
2022-12-29T03:15:26.568Z,99925.75
2022-12-29T03:18:12.810Z,99929.53
2022-12-29T03:20:47.174Z,99932.06
2022-12-29T03:23:15.916Z,99907.63
2022-12-29T03:25:56.390Z,99906.44
2022-12-29T03:28:34.501Z,99929.69
2022-12-29T03:33:59.207Z,99920.75
2022-12-29T03:36:42.531Z,99925.22
2022-12-29T03:42:24.944Z,99905.78
2022-12-29T03:44:59.513Z,99912.94
2022-12-29T03:47:38.942Z,99900.47
2022-12-29T03:50:08.215Z,99896.00
2022-12-29T03:52:38.888Z,99917.97
2022-12-29T03:55:14.155Z,99899.50
2022-12-29T03:57:46.473Z,99916.47
2022-12-29T04:00:21.344Z,99899.50
2022-12-29T04:02:56.448Z,99904.97
2022-12-29T04:05:29.941Z,99917.88
2022-12-29T04:08:04.101Z,99940.13
2022-12-29T04:10:34.311Z,99931.50
2022-12-29T04:13:06.678Z,99923.34
2022-12-29T04:15:58.080Z,99921.81
2022-12-29T04:18:36.481Z,99946.88
2022-12-29T04:21:08.342Z,99939.22
2022-12-29T04:23:50.076Z,99936.88
2022-12-29T04:26:20.307Z,99915.84
2022-12-29T04:28:51.542Z,99914.69
2022-12-29T04:31:22.247Z,99918.84
2022-12-29T04:33:58.254Z,99922.47
2022-12-29T04:36:30.719Z,99945.22
2022-12-29T04:39:09.909Z,99924.47
2022-12-29T04:41:43.545Z,99950.66
2022-12-29T04:44:16.985Z,99925.06
2022-12-29T04:46:49.387Z,99924.25
2022-12-29T04:49:19.159Z,99940.16
2022-12-29T04:51:50.792Z,99942.00
2022-12-29T04:54:22.596Z,99924.75
2022-12-29T04:57:00.971Z,99943.59
2022-12-29T04:59:34.595Z,99933.00
2022-12-29T05:02:01.592Z,99955.06
2022-12-29T05:04:33.854Z,99947.09
2022-12-29T05:07:03.653Z,99962.69
2022-12-29T05:09:34.197Z,99927.34
2022-12-29T05:12:05.431Z,99939.75
2022-12-29T05:14:33.692Z,99937.25
2022-12-29T05:17:15.584Z,99937.25
2022-12-29T05:19:46.756Z,99942.88
2022-12-29T05:22:20.345Z,99927.00
2022-12-29T05:24:54.478Z,99975.38
2022-12-29T05:27:31.139Z,99995.09
2022-12-29T05:30:03.231Z,99957.13
2022-12-29T05:32:38.710Z,99954.63
2022-12-29T05:35:08.795Z,99968.13
2022-12-29T05:37:41.155Z,99961.44
2022-12-29T05:40:14.430Z,99952.13
2022-12-29T05:42:41.397Z,99970.22
2022-12-29T05:45:14.618Z,99965.22
2022-12-29T05:47:49.564Z,99970.66
2022-12-29T05:50:22.977Z,99965.66
2022-12-29T05:52:50.633Z,99987.41
2022-12-29T05:55:28.343Z,99995.06
2022-12-29T05:57:56.562Z,99967.78
2022-12-29T06:00:28.388Z,99975.16
2022-12-29T06:03:00.960Z,99973.00
2022-12-29T06:05:33.748Z,99958.03
2022-12-29T06:08:04.862Z,99975.13
2022-12-29T06:10:35.760Z,99980.13
2022-12-29T06:13:05.480Z,100010.13
2022-12-29T06:15:36.439Z,99984.00
2022-12-29T06:18:08.705Z,100010.91
2022-12-29T06:20:38.556Z,99988.16
2022-12-29T06:23:17.278Z,100017.53
2022-12-29T06:25:47.687Z,99988.81
2022-12-29T06:28:30.644Z,100023.06
2022-12-29T06:31:06.575Z,99983.06
2022-12-29T06:33:38.915Z,99985.19
2022-12-29T06:36:09.773Z,99995.63
2022-12-29T06:38:45.291Z,100007.75
2022-12-29T06:41:38.264Z,100032.00
2022-12-29T06:44:08.748Z,100004.09
2022-12-29T06:46:41.489Z,100039.47
2022-12-29T06:49:16.748Z,100018.34
2022-12-29T06:51:44.451Z,100047.59
2022-12-29T06:54:17.527Z,100016.53
2022-12-29T06:56:54.544Z,100033.59
2022-12-29T06:59:29.370Z,100032.59
2022-12-29T07:01:59.017Z,100024.31
2022-12-29T07:04:27.247Z,100014.69
2022-12-29T07:07:04.747Z,100013.56
2022-12-29T07:09:39.047Z,100040.88
2022-12-29T07:12:13.727Z,100006.59
2022-12-29T07:14:45.428Z,100024.19
2022-12-29T07:17:23.343Z,100029.03
2022-12-29T07:20:01.160Z,100026.31
2022-12-29T07:22:40.437Z,100029.03
2022-12-29T07:25:20.876Z,100007.44
2022-12-29T07:27:55.893Z,100012.59
2022-12-29T07:30:30.059Z,100022.00
2022-12-29T07:33:12.999Z,100016.97
2022-12-29T07:35:47.012Z,100025.16
2022-12-29T07:38:22.701Z,100033.91
2022-12-29T07:41:08.090Z,100029.97
2022-12-29T07:43:43.062Z,100018.19
2022-12-29T07:46:53.548Z,100021.97
2022-12-29T07:49:04.632Z,100035.09
2022-12-29T07:51:40.831Z,100068.97
2022-12-29T07:54:08.091Z,100062.66
2022-12-29T07:57:06.730Z,100050.50
2022-12-29T07:59:33.776Z,100062.66
2022-12-29T08:02:02.438Z,100042.56
2022-12-29T08:04:48.780Z,100030.13
2022-12-29T08:07:18.490Z,100055.22
2022-12-29T08:09:51.380Z,100030.28
2022-12-29T08:12:40.833Z,100057.34
2022-12-29T08:15:09.944Z,100065.66
2022-12-29T08:17:45.724Z,100046.19
2022-12-29T08:20:14.281Z,100037.91
2022-12-29T08:22:46.349Z,100043.03
2022-12-29T08:25:15.085Z,100037.59
2022-12-29T08:27:44.699Z,100052.19
2022-12-29T08:30:30.885Z,100038.81
2022-12-29T08:33:10.538Z,100050.97
2022-12-29T08:35:43.676Z,100053.50
2022-12-29T08:38:34.013Z,100020.25
2022-12-29T08:41:04.550Z,100058.59
2022-12-29T08:43:39.176Z,100054.44
2022-12-29T08:49:00.375Z,100039.69
2022-12-29T08:51:29.555Z,100057.63
2022-12-29T08:54:03.168Z,100036.88
2022-12-29T08:56:45.391Z,100046.38
2022-12-29T08:59:14.097Z,100045.50
2022-12-29T09:01:47.714Z,100041.88
2022-12-29T09:04:19.778Z,100073.25
2022-12-29T09:06:54.308Z,100071.22
2022-12-29T09:09:29.129Z,100055.78
2022-12-29T09:11:58.322Z,100056.94
2022-12-29T09:14:29.821Z,100090.16
2022-12-29T09:20:23.488Z,100114.03
2022-12-29T09:23:15.252Z,100120.00
2022-12-29T09:26:01.143Z,100095.53
2022-12-29T09:28:34.429Z,100125.63
2022-12-29T09:31:16.006Z,100112.09
2022-12-29T09:33:47.618Z,100111.63
2022-12-29T09:36:23.496Z,100115.13
2022-12-29T09:39:00.572Z,100116.78
2022-12-29T09:42:07.021Z,100155.81
2022-12-29T09:45:02.655Z,100162.78
2022-12-29T09:47:58.002Z,100143.28
2022-12-29T09:50:43.986Z,100154.28
2022-12-29T09:53:22.154Z,100161.69
2022-12-29T09:55:55.272Z,100155.25
2022-12-29T09:58:37.410Z,100192.34
2022-12-29T10:01:47.532Z,100173.31
2022-12-29T10:04:19.011Z,100174.00
2022-12-29T10:07:31.050Z,100174.69
2022-12-29T10:10:25.302Z,100169.84
2022-12-29T10:13:08.677Z,100206.13
2022-12-29T10:16:00.790Z,100190.75
2022-12-29T10:19:14.222Z,100195.50
2022-12-29T10:22:17.831Z,100227.19
2022-12-29T10:24:54.640Z,100209.00
2022-12-29T10:27:25.693Z,100207.03
2022-12-29T10:30:09.799Z,100209.28
2022-12-29T10:32:46.210Z,100193.69
2022-12-29T10:35:21.491Z,100217.94
2022-12-29T10:38:17.607Z,100239.06
2022-12-29T10:41:05.607Z,100254.22
2022-12-29T10:43:49.388Z,100218.53
2022-12-29T10:46:27.727Z,100232.16
2022-12-29T10:49:01.841Z,100235.50
2022-12-29T10:51:45.938Z,100244.72
2022-12-29T10:54:39.979Z,100253.31
2022-12-29T10:57:22.763Z,100264.59
2022-12-29T10:59:49.713Z,100251.25
2022-12-29T11:02:25.007Z,100290.03
2022-12-29T11:05:08.897Z,100263.53
2022-12-29T11:07:37.988Z,100282.03
2022-12-29T11:10:44.256Z,100281.19
2022-12-29T11:13:39.285Z,100282.19
2022-12-29T11:16:31.372Z,100280.66
2022-12-29T11:19:30.423Z,100270.38
2022-12-29T11:22:22.193Z,100285.97
2022-12-29T11:25:05.826Z,100288.63
2022-12-29T11:27:44.024Z,100318.91
2022-12-29T11:30:34.283Z,100339.81
2022-12-29T11:33:10.879Z,100304.66
2022-12-29T11:35:47.551Z,100333.00
2022-12-29T11:38:29.815Z,100318.31
2022-12-29T11:41:16.576Z,100344.22
2022-12-29T11:43:56.334Z,100341.19
2022-12-29T11:46:39.290Z,100348.72
2022-12-29T11:49:18.955Z,100359.81
2022-12-29T11:51:55.600Z,100350.66
2022-12-29T11:54:50.141Z,100350.53
2022-12-29T11:57:25.222Z,100355.00
2022-12-29T12:00:04.467Z,100357.50
2022-12-29T12:02:45.634Z,100362.66
2022-12-29T12:05:53.783Z,100387.34
2022-12-29T12:08:30.247Z,100371.66
2022-12-29T12:11:39.129Z,100389.84
2022-12-29T12:14:47.054Z,100384.53
2022-12-29T12:17:21.006Z,100358.84
2022-12-29T12:20:21.333Z,100388.84
2022-12-29T12:22:57.595Z,100371.50
2022-12-29T12:26:22.944Z,100362.31
2022-12-29T12:29:01.083Z,100382.66
2022-12-29T12:31:43.285Z,100397.34
2022-12-29T12:34:19.017Z,100389.84
2022-12-29T12:37:02.327Z,100402.31
2022-12-29T12:39:54.725Z,100406.66
2022-12-29T12:42:46.841Z,100383.47
2022-12-29T12:45:47.605Z,100407.34
2022-12-29T12:48:20.299Z,100418.78
2022-12-29T12:51:25.341Z,100379.47
2022-12-29T12:54:24.432Z,100399.59
2022-12-29T12:57:03.716Z,100425.59
2022-12-29T12:59:43.323Z,100429.94
2022-12-29T13:02:35.954Z,100430.75
2022-12-29T13:05:33.030Z,100427.88
2022-12-29T13:08:53.805Z,100408.09
2022-12-29T13:11:59.844Z,100414.53
2022-12-29T13:14:57.763Z,100447.38
2022-12-29T13:17:50.168Z,100434.94
2022-12-29T13:20:25.347Z,100446.38
2022-12-29T13:23:34.259Z,100439.09
2022-12-29T13:26:26.903Z,100440.16
2022-12-29T13:29:01.988Z,100436.59
2022-12-29T13:31:37.328Z,100440.91
2022-12-29T13:34:24.850Z,100470.94
2022-12-29T13:37:03.102Z,100446.06
2022-12-29T13:39:49.089Z,100443.44
2022-12-29T13:42:26.089Z,100458.03
2022-12-29T13:45:28.474Z,100458.28
2022-12-29T13:48:08.899Z,100463.66
2022-12-29T13:50:43.966Z,100436.31
2022-12-29T13:53:44.450Z,100444.13
2022-12-29T13:56:36.240Z,100464.97
2022-12-29T13:59:30.037Z,100473.97
2022-12-29T14:02:33.286Z,100451.59
2022-12-29T14:05:08.913Z,100445.31
2022-12-29T14:07:47.619Z,100457.44
2022-12-29T14:10:35.608Z,100466.00
2022-12-29T14:13:26.120Z,100452.13
2022-12-29T14:16:05.548Z,100446.97
2022-12-29T14:18:45.609Z,100429.19
2022-12-29T14:21:39.006Z,100467.97
2022-12-29T14:24:59.917Z,100441.81
2022-12-29T14:27:32.815Z,100478.28
2022-12-29T14:30:10.007Z,100480.09
2022-12-29T14:32:41.292Z,100454.53
2022-12-29T14:35:58.933Z,100458.44
2022-12-29T14:38:31.575Z,100486.53
2022-12-29T14:41:40.526Z,100459.41
2022-12-29T14:44:24.802Z,100447.75
2022-12-29T14:47:09.456Z,100462.91
2022-12-29T14:49:50.553Z,100463.72
2022-12-29T14:53:02.047Z,100492.53
2022-12-29T14:55:52.079Z,100464.88
2022-12-29T14:58:29.937Z,100486.19
2022-12-29T15:01:31.571Z,100451.53
2022-12-29T15:04:17.382Z,100478.28
2022-12-29T15:06:51.683Z,100466.00
2022-12-29T15:09:56.521Z,100502.19
2022-12-29T15:12:59.367Z,100468.81
2022-12-29T15:15:33.031Z,100472.97
2022-12-29T15:18:17.076Z,100495.81
2022-12-29T15:20:47.290Z,100479.25
2022-12-29T15:23:18.534Z,100483.13
2022-12-29T15:25:56.786Z,100472.81
2022-12-29T15:28:38.064Z,100473.66
2022-12-29T15:31:24.863Z,100477.00
2022-12-29T15:34:05.481Z,100493.38
2022-12-29T15:36:46.220Z,100483.97
2022-12-29T15:39:53.720Z,100478.41
2022-12-29T15:42:37.677Z,100500.44
2022-12-29T15:45:19.831Z,100501.28
2022-12-29T15:47:54.747Z,100493.22
2022-12-29T15:50:36.069Z,100486.38
2022-12-29T15:53:11.168Z,100502.69
2022-12-29T15:55:47.164Z,100493.81
2022-12-29T15:58:38.899Z,100527.03
2022-12-29T16:01:45.717Z,100500.47
2022-12-29T16:04:21.476Z,100503.00
2022-12-29T16:07:03.459Z,100506.63
2022-12-29T16:09:55.185Z,100504.94
2022-12-29T16:12:30.861Z,100507.09
2022-12-29T16:15:15.141Z,100533.81
2022-12-29T16:17:58.628Z,100513.84
2022-12-29T16:20:36.112Z,100507.47
2022-12-29T16:23:11.212Z,100513.44
2022-12-29T16:25:47.236Z,100532.03
2022-12-29T16:28:25.823Z,100555.41
2022-12-29T16:31:09.947Z,100533.00
2022-12-29T16:33:41.617Z,100542.78
2022-12-29T16:36:34.133Z,100575.50
2022-12-29T16:39:30.104Z,100546.81
2022-12-29T16:42:04.709Z,100547.66
2022-12-29T16:44:34.315Z,100547.66
2022-12-29T16:47:05.215Z,100542.78
2022-12-29T16:49:35.840Z,100560.47
2022-12-29T16:52:23.241Z,100550.88
2022-12-29T16:54:57.289Z,100567.34
2022-12-29T17:00:29.038Z,100567.66
2022-12-29T17:03:01.812Z,100576.97
2022-12-29T17:05:36.219Z,100592.06
2022-12-29T17:08:09.075Z,100582.91
2022-12-29T17:11:12.156Z,100579.56
2022-12-29T17:13:45.137Z,100591.69
2022-12-29T17:16:14.549Z,100637.28
2022-12-29T17:18:49.433Z,100611.03
2022-12-29T17:21:19.753Z,100593.34
2022-12-29T17:23:51.364Z,100620.00
2022-12-29T17:26:35.190Z,100627.94
2022-12-29T17:29:10.832Z,100607.91
2022-12-29T17:31:42.679Z,100645.09
2022-12-29T17:34:23.812Z,100626.56
2022-12-29T17:36:58.381Z,100651.22
2022-12-29T17:39:29.921Z,100627.31
2022-12-29T17:42:10.392Z,100634.56
2022-12-29T17:44:46.375Z,100626.63
2022-12-29T17:47:17.693Z,100639.75
2022-12-29T17:50:00.067Z,100638.63
2022-12-29T17:52:31.564Z,100633.44
2022-12-29T17:55:10.171Z,100643.22
2022-12-29T17:57:42.326Z,100638.34
2022-12-29T18:00:31.744Z,100639.88
2022-12-29T18:03:02.535Z,100663.41
2022-12-29T18:05:35.461Z,100645.19
2022-12-29T18:08:06.804Z,100660.13
2022-12-29T18:10:41.706Z,100692.84
2022-12-29T18:13:46.971Z,100654.81
2022-12-29T18:16:18.520Z,100679.91
2022-12-29T18:18:56.848Z,100663.06
2022-12-29T18:21:29.916Z,100681.72
2022-12-29T18:24:05.939Z,100676.19
2022-12-29T18:26:35.850Z,100689.69
2022-12-29T18:29:04.280Z,100702.38
2022-12-29T18:31:44.003Z,100682.72
2022-12-29T18:34:20.579Z,100708.38
2022-12-29T18:36:52.012Z,100695.97
2022-12-29T18:39:30.087Z,100709.25
2022-12-29T18:41:56.729Z,100712.59
2022-12-29T18:44:28.267Z,100719.44
2022-12-29T18:47:01.522Z,100703.94
2022-12-29T18:49:30.923Z,100705.09
2022-12-29T18:52:01.889Z,100707.41
2022-12-29T18:54:36.002Z,100721.25
2022-12-29T18:57:05.798Z,100717.88
2022-12-29T18:59:36.113Z,100712.06
2022-12-29T19:02:07.357Z,100715.56
2022-12-29T19:04:37.291Z,100714.03
2022-12-29T19:07:10.413Z,100733.94
2022-12-29T19:09:39.213Z,100715.69
2022-12-29T19:12:08.872Z,100727.81
2022-12-29T19:14:40.601Z,100753.22
2022-12-29T19:17:16.184Z,100714.16
2022-12-29T19:19:52.625Z,100741.78
2022-12-29T19:22:34.228Z,100740.50
2022-12-29T19:25:21.961Z,100734.41
2022-12-29T19:27:54.883Z,100741.38
2022-12-29T19:30:27.388Z,100738.03
2022-12-29T19:33:01.407Z,100741.38
2022-12-29T19:35:38.973Z,100745.03
2022-12-29T19:38:10.908Z,100776.94
2022-12-29T19:41:03.731Z,100743.47
2022-12-29T19:43:40.582Z,100772.34
2022-12-29T19:46:19.213Z,100753.97
2022-12-29T19:48:52.856Z,100754.94
2022-12-29T19:51:28.763Z,100785.47
2022-12-29T19:56:44.598Z,100763.59
2022-12-29T19:59:16.782Z,100759.69
2022-12-29T20:01:46.041Z,100772.94
2022-12-29T20:04:15.758Z,100762.34
2022-12-29T20:06:55.387Z,100795.97
2022-12-29T20:09:24.720Z,100793.72
2022-12-29T20:12:04.135Z,100795.81
2022-12-29T20:14:39.451Z,100779.22
2022-12-29T20:17:15.654Z,100763.31
2022-12-29T20:19:48.995Z,100796.94
2022-12-29T20:22:20.322Z,100779.50
2022-12-29T20:24:53.988Z,100775.59
2022-12-29T20:27:36.894Z,100771.28
2022-12-29T20:30:13.638Z,100794.97
2022-12-29T20:32:45.210Z,100784.13
2022-12-29T20:35:16.330Z,100781.88
2022-12-29T20:37:51.874Z,100782.72
2022-12-29T20:40:27.095Z,100786.34
2022-12-29T20:43:02.935Z,100813.00
2022-12-29T20:45:33.922Z,100812.28
2022-12-29T20:48:03.972Z,100777.69
2022-12-29T20:50:33.005Z,100788.88
2022-12-29T20:55:56.876Z,100785.81
2022-12-29T20:58:25.828Z,100803.53
2022-12-29T21:00:57.568Z,100818.19
2022-12-29T21:03:30.304Z,100799.75
2022-12-29T21:06:00.072Z,100809.97
2022-12-29T21:08:35.136Z,100815.97
2022-12-29T21:11:04.721Z,100820.97
2022-12-29T21:14:01.177Z,100821.66
2022-12-29T21:16:29.092Z,100844.41
2022-12-29T21:18:58.904Z,100832.97
2022-12-29T21:21:29.624Z,100835.25
2022-12-29T21:24:08.168Z,100825.44
2022-12-29T21:26:36.814Z,100833.13
2022-12-29T21:29:14.187Z,100842.91
2022-12-29T21:31:48.915Z,100834.41
2022-12-29T21:34:18.489Z,100846.66
2022-12-29T21:36:50.374Z,100857.84
2022-12-29T21:39:21.524Z,100843.47
2022-12-29T21:41:54.716Z,100858.28
2022-12-29T21:44:44.175Z,100867.59
2022-12-29T21:47:13.726Z,100854.78
2022-12-29T21:49:43.844Z,100866.25
2022-12-29T21:52:13.590Z,100874.59
2022-12-29T21:55:01.760Z,100871.69
2022-12-29T21:57:49.634Z,100872.50
2022-12-29T22:00:35.567Z,100900.13
2022-12-29T22:03:23.706Z,100879.19
2022-12-29T22:06:13.549Z,100893.59
2022-12-29T22:08:58.995Z,100898.06
2022-12-29T22:11:48.474Z,100883.66
2022-12-29T22:14:17.354Z,100888.41
2022-12-29T22:16:49.255Z,100910.91
2022-12-29T22:19:19.043Z,100951.81
2022-12-29T22:21:51.751Z,100918.28
2022-12-29T22:24:23.512Z,100930.31
2022-12-29T22:26:54.272Z,100953.59
2022-12-29T22:29:24.854Z,100928.91
2022-12-29T22:31:57.403Z,100946.09
2022-12-29T22:34:29.794Z,100944.53
2022-12-29T22:36:58.898Z,100973.44
2022-12-29T22:39:25.719Z,100956.00
2022-12-29T22:41:57.621Z,100990.78
2022-12-29T22:44:33.785Z,100950.25
2022-12-29T22:47:03.749Z,100966.03
2022-12-29T22:49:31.890Z,100967.72
2022-12-29T22:52:01.179Z,100970.34
2022-12-29T22:54:39.946Z,100964.66
2022-12-29T22:57:11.321Z,100975.41
2022-12-29T22:59:42.372Z,100977.34
2022-12-29T23:02:11.479Z,100982.78
2022-12-29T23:05:02.967Z,100994.09
2022-12-29T23:07:31.535Z,101006.81
2022-12-29T23:10:02.475Z,100997.72
2022-12-29T23:12:32.768Z,101008.06
2022-12-29T23:15:01.981Z,100990.03
2022-12-29T23:17:31.320Z,100998.69
2022-12-29T23:20:06.741Z,101023.72
2022-12-29T23:22:42.006Z,100982.22
2022-12-29T23:25:11.516Z,101007.50
2022-12-29T23:27:40.157Z,100992.41
2022-12-29T23:30:12.901Z,101003.28
2022-12-29T23:32:42.199Z,100993.22
2022-12-29T23:35:14.074Z,101002.16
2022-12-29T23:37:44.535Z,101009.50
2022-12-29T23:40:14.425Z,101004.59
2022-12-29T23:42:48.456Z,101013.50
2022-12-29T23:45:25.208Z,101012.66
2022-12-29T23:48:03.245Z,101010.31
2022-12-29T23:50:43.292Z,101020.63
2022-12-29T23:53:19.535Z,101014.19
2022-12-29T23:55:58.217Z,101017.81
2022-12-29T23:58:34.255Z,101023.00
